sensor_id;sensor_type;location;lat;lon;timestamp;P1;durP1;ratioP1;P2;durP2;ratioP2
77522;SDS011;66637;-29.628;-49.938;2023-12-07T00:02:18;140.70;;;21.98;;
77522;SDS011;66637;-29.628;-49.938;2023-12-07T00:04:50;172.32;;;26.50;;
77522;SDS011;66637;-29.628;-49.938;2023-12-07T00:07:22;172.05;;;22.80;;
77522;SDS011;66637;-29.628;-49.938;2023-12-07T00:09:53;161.30;;;22.88;;
77522;SDS011;66637;-29.628;-49.938;2023-12-07T00:12:23;183.70;;;25.50;;
77522;SDS011;66637;-29.628;-49.938;2023-12-07T00:14:54;222.77;;;31.00;;
77522;SDS011;66637;-29.628;-49.938;2023-12-07T00:17:25;218.85;;;28.60;;
77522;SDS011;66637;-29.628;-49.938;2023-12-07T00:19:56;227.02;;;30.63;;
77522;SDS011;66637;-29.628;-49.938;2023-12-07T00:22:27;184.63;;;25.65;;
77522;SDS011;66637;-29.628;-49.938;2023-12-07T00:24:58;154.55;;;23.35;;
77522;SDS011;66637;-29.628;-49.938;2023-12-07T00:27:30;126.18;;;20.67;;
77522;SDS011;66637;-29.628;-49.938;2023-12-07T00:30:00;129.10;;;20.75;;
77522;SDS011;66637;-29.628;-49.938;2023-12-07T00:32:31;277.08;;;34.95;;
77522;SDS011;66637;-29.628;-49.938;2023-12-07T00:35:03;200.98;;;26.90;;
77522;SDS011;66637;-29.628;-49.938;2023-12-07T00:37:34;188.88;;;28.30;;
77522;SDS011;66637;-29.628;-49.938;2023-12-07T00:40:05;302.20;;;40.50;;
77522;SDS011;66637;-29.628;-49.938;2023-12-07T00:42:37;300.73;;;39.33;;
77522;SDS011;66637;-29.628;-49.938;2023-12-07T00:45:09;268.10;;;35.80;;
77522;SDS011;66637;-29.628;-49.938;2023-12-07T00:47:42;184.77;;;29.00;;
77522;SDS011;66637;-29.628;-49.938;2023-12-07T00:50:13;72.50;;;14.82;;
77522;SDS011;66637;-29.628;-49.938;2023-12-07T00:52:44;33.05;;;9.98;;
77522;SDS011;66637;-29.628;-49.938;2023-12-07T00:55:14;16.08;;;7.32;;
77522;SDS011;66637;-29.628;-49.938;2023-12-07T00:57:45;14.75;;;7.25;;
77522;SDS011;66637;-29.628;-49.938;2023-12-07T01:00:16;12.82;;;6.93;;
77522;SDS011;66637;-29.628;-49.938;2023-12-07T01:02:46;13.38;;;6.78;;
77522;SDS011;66637;-29.628;-49.938;2023-12-07T01:05:16;13.90;;;7.20;;
77522;SDS011;66637;-29.628;-49.938;2023-12-07T01:07:47;12.07;;;6.55;;
77522;SDS011;66637;-29.628;-49.938;2023-12-07T01:10:18;10.68;;;5.63;;
77522;SDS011;66637;-29.628;-49.938;2023-12-07T01:12:48;12.63;;;6.10;;
77522;SDS011;66637;-29.628;-49.938;2023-12-07T01:15:19;16.42;;;6.97;;
77522;SDS011;66637;-29.628;-49.938;2023-12-07T01:17:49;10.55;;;6.47;;
77522;SDS011;66637;-29.628;-49.938;2023-12-07T01:23:02;13.38;;;6.97;;
77522;SDS011;66637;-29.628;-49.938;2023-12-07T01:25:34;14.50;;;7.10;;
77522;SDS011;66637;-29.628;-49.938;2023-12-07T01:28:06;12.63;;;7.43;;
77522;SDS011;66637;-29.628;-49.938;2023-12-07T01:30:36;12.65;;;6.95;;
77522;SDS011;66637;-29.628;-49.938;2023-12-07T01:33:06;110.13;;;17.60;;
77522;SDS011;66637;-29.628;-49.938;2023-12-07T01:35:37;177.52;;;27.65;;
77522;SDS011;66637;-29.628;-49.938;2023-12-07T01:38:07;339.67;;;47.20;;
77522;SDS011;66637;-29.628;-49.938;2023-12-07T01:40:37;345.88;;;48.80;;
77522;SDS011;66637;-29.628;-49.938;2023-12-07T01:43:13;360.45;;;51.03;;
77522;SDS011;66637;-29.628;-49.938;2023-12-07T01:45:46;460.58;;;61.25;;
77522;SDS011;66637;-29.628;-49.938;2023-12-07T01:48:17;272.88;;;38.60;;
77522;SDS011;66637;-29.628;-49.938;2023-12-07T01:50:48;44.58;;;11.63;;
77522;SDS011;66637;-29.628;-49.938;2023-12-07T01:53:21;21.90;;;8.77;;
77522;SDS011;66637;-29.628;-49.938;2023-12-07T01:55:53;20.15;;;8.35;;
77522;SDS011;66637;-29.628;-49.938;2023-12-07T01:58:24;13.82;;;7.30;;
77522;SDS011;66637;-29.628;-49.938;2023-12-07T02:00:55;17.20;;;6.78;;
77522;SDS011;66637;-29.628;-49.938;2023-12-07T02:03:25;11.55;;;6.03;;
77522;SDS011;66637;-29.628;-49.938;2023-12-07T02:09:18;14.38;;;6.85;;
77522;SDS011;66637;-29.628;-49.938;2023-12-07T02:11:49;11.02;;;6.63;;
77522;SDS011;66637;-29.628;-49.938;2023-12-07T02:14:20;10.38;;;6.82;;
77522;SDS011;66637;-29.628;-49.938;2023-12-07T02:22:25;166.43;;;23.38;;
77522;SDS011;66637;-29.628;-49.938;2023-12-07T02:25:05;153.20;;;22.73;;
77522;SDS011;66637;-29.628;-49.938;2023-12-07T02:30:17;119.95;;;18.10;;
77522;SDS011;66637;-29.628;-49.938;2023-12-07T02:35:47;208.60;;;30.45;;
77522;SDS011;66637;-29.628;-49.938;2023-12-07T02:38:18;182.73;;;25.67;;
77522;SDS011;66637;-29.628;-49.938;2023-12-07T02:40:54;207.35;;;27.60;;
77522;SDS011;66637;-29.628;-49.938;2023-12-07T02:46:13;324.10;;;41.85;;
77522;SDS011;66637;-29.628;-49.938;2023-12-07T02:48:44;381.40;;;49.08;;
77522;SDS011;66637;-29.628;-49.938;2023-12-07T02:51:16;249.35;;;37.85;;
77522;SDS011;66637;-29.628;-49.938;2023-12-07T02:53:47;225.00;;;32.25;;
77522;SDS011;66637;-29.628;-49.938;2023-12-07T02:56:18;226.05;;;33.10;;
77522;SDS011;66637;-29.628;-49.938;2023-12-07T02:58:49;234.80;;;34.03;;
77522;SDS011;66637;-29.628;-49.938;2023-12-07T03:01:19;249.48;;;34.92;;
77522;SDS011;66637;-29.628;-49.938;2023-12-07T03:03:50;240.48;;;35.88;;
77522;SDS011;66637;-29.628;-49.938;2023-12-07T03:06:22;290.98;;;38.67;;
77522;SDS011;66637;-29.628;-49.938;2023-12-07T03:08:55;287.30;;;41.38;;
77522;SDS011;66637;-29.628;-49.938;2023-12-07T03:11:26;287.00;;;39.38;;
77522;SDS011;66637;-29.628;-49.938;2023-12-07T03:13:57;237.18;;;36.90;;
77522;SDS011;66637;-29.628;-49.938;2023-12-07T03:16:29;248.75;;;36.53;;
77522;SDS011;66637;-29.628;-49.938;2023-12-07T03:19:01;212.13;;;32.95;;
77522;SDS011;66637;-29.628;-49.938;2023-12-07T03:21:31;213.18;;;29.70;;
77522;SDS011;66637;-29.628;-49.938;2023-12-07T03:26:37;137.65;;;22.10;;
77522;SDS011;66637;-29.628;-49.938;2023-12-07T03:29:09;160.85;;;25.45;;
77522;SDS011;66637;-29.628;-49.938;2023-12-07T03:31:40;169.45;;;26.67;;
77522;SDS011;66637;-29.628;-49.938;2023-12-07T03:34:10;173.95;;;27.42;;
77522;SDS011;66637;-29.628;-49.938;2023-12-07T03:36:46;199.00;;;28.10;;
77522;SDS011;66637;-29.628;-49.938;2023-12-07T03:39:17;193.35;;;27.42;;
77522;SDS011;66637;-29.628;-49.938;2023-12-07T03:41:48;161.07;;;24.73;;
77522;SDS011;66637;-29.628;-49.938;2023-12-07T03:44:19;119.95;;;20.40;;
77522;SDS011;66637;-29.628;-49.938;2023-12-07T03:46:50;114.80;;;18.15;;
77522;SDS011;66637;-29.628;-49.938;2023-12-07T03:49:21;140.00;;;24.15;;
77522;SDS011;66637;-29.628;-49.938;2023-12-07T03:51:51;156.02;;;24.73;;
77522;SDS011;66637;-29.628;-49.938;2023-12-07T03:54:22;169.43;;;26.52;;
77522;SDS011;66637;-29.628;-49.938;2023-12-07T03:56:53;172.02;;;26.50;;
77522;SDS011;66637;-29.628;-49.938;2023-12-07T03:59:24;302.95;;;42.83;;
77522;SDS011;66637;-29.628;-49.938;2023-12-07T04:01:57;207.13;;;31.95;;
77522;SDS011;66637;-29.628;-49.938;2023-12-07T04:04:28;152.15;;;26.02;;
77522;SDS011;66637;-29.628;-49.938;2023-12-07T04:06:59;150.40;;;25.73;;
77522;SDS011;66637;-29.628;-49.938;2023-12-07T04:09:29;141.88;;;23.55;;
77522;SDS011;66637;-29.628;-49.938;2023-12-07T04:12:01;126.45;;;21.92;;
77522;SDS011;66637;-29.628;-49.938;2023-12-07T04:14:32;117.68;;;21.92;;
77522;SDS011;66637;-29.628;-49.938;2023-12-07T04:17:02;96.60;;;17.55;;
77522;SDS011;66637;-29.628;-49.938;2023-12-07T04:19:32;81.28;;;16.95;;
77522;SDS011;66637;-29.628;-49.938;2023-12-07T04:22:04;74.72;;;15.63;;
77522;SDS011;66637;-29.628;-49.938;2023-12-07T04:24:38;63.60;;;14.13;;
77522;SDS011;66637;-29.628;-49.938;2023-12-07T04:27:09;54.28;;;13.43;;
77522;SDS011;66637;-29.628;-49.938;2023-12-07T04:29:42;48.85;;;12.90;;
77522;SDS011;66637;-29.628;-49.938;2023-12-07T04:32:13;38.47;;;10.65;;
77522;SDS011;66637;-29.628;-49.938;2023-12-07T04:34:59;36.72;;;9.05;;
77522;SDS011;66637;-29.628;-49.938;2023-12-07T04:37:31;21.20;;;8.13;;
77522;SDS011;66637;-29.628;-49.938;2023-12-07T04:40:01;26.27;;;8.80;;
77522;SDS011;66637;-29.628;-49.938;2023-12-07T04:42:35;21.35;;;7.18;;
77522;SDS011;66637;-29.628;-49.938;2023-12-07T04:45:06;24.90;;;7.25;;
77522;SDS011;66637;-29.628;-49.938;2023-12-07T04:47:38;302.65;;;43.08;;
77522;SDS011;66637;-29.628;-49.938;2023-12-07T04:50:10;319.50;;;42.90;;
77522;SDS011;66637;-29.628;-49.938;2023-12-07T04:52:40;323.25;;;45.65;;
77522;SDS011;66637;-29.628;-49.938;2023-12-07T04:55:12;283.45;;;41.42;;
77522;SDS011;66637;-29.628;-49.938;2023-12-07T04:57:45;179.27;;;26.63;;
77522;SDS011;66637;-29.628;-49.938;2023-12-07T05:00:17;124.82;;;22.52;;
77522;SDS011;66637;-29.628;-49.938;2023-12-07T05:02:50;44.72;;;11.05;;
77522;SDS011;66637;-29.628;-49.938;2023-12-07T05:05:21;21.88;;;8.52;;
77522;SDS011;66637;-29.628;-49.938;2023-12-07T05:07:54;17.80;;;6.85;;
77522;SDS011;66637;-29.628;-49.938;2023-12-07T05:10:26;12.27;;;6.20;;
77522;SDS011;66637;-29.628;-49.938;2023-12-07T05:12:58;11.82;;;6.07;;
77522;SDS011;66637;-29.628;-49.938;2023-12-07T05:15:29;11.43;;;5.88;;
77522;SDS011;66637;-29.628;-49.938;2023-12-07T05:17:59;7.85;;;5.07;;
77522;SDS011;66637;-29.628;-49.938;2023-12-07T05:20:45;8.90;;;5.22;;
77522;SDS011;66637;-29.628;-49.938;2023-12-07T05:23:17;11.02;;;5.55;;
77522;SDS011;66637;-29.628;-49.938;2023-12-07T05:25:48;6.40;;;5.32;;
77522;SDS011;66637;-29.628;-49.938;2023-12-07T05:28:24;7.03;;;5.40;;
77522;SDS011;66637;-29.628;-49.938;2023-12-07T05:30:55;8.93;;;4.60;;
77522;SDS011;66637;-29.628;-49.938;2023-12-07T05:33:27;6.82;;;4.78;;
77522;SDS011;66637;-29.628;-49.938;2023-12-07T05:39:02;10.10;;;4.88;;
77522;SDS011;66637;-29.628;-49.938;2023-12-07T05:41:36;9.60;;;4.72;;
77522;SDS011;66637;-29.628;-49.938;2023-12-07T05:44:06;7.38;;;4.38;;
77522;SDS011;66637;-29.628;-49.938;2023-12-07T05:46:38;7.63;;;4.28;;
77522;SDS011;66637;-29.628;-49.938;2023-12-07T05:49:15;5.85;;;3.97;;
77522;SDS011;66637;-29.628;-49.938;2023-12-07T05:51:46;6.75;;;3.60;;
77522;SDS011;66637;-29.628;-49.938;2023-12-07T05:54:17;5.22;;;3.08;;
77522;SDS011;66637;-29.628;-49.938;2023-12-07T05:56:51;3.47;;;3.00;;
77522;SDS011;66637;-29.628;-49.938;2023-12-07T05:59:21;488.67;;;77.32;;
77522;SDS011;66637;-29.628;-49.938;2023-12-07T06:01:52;384.33;;;61.60;;
77522;SDS011;66637;-29.628;-49.938;2023-12-07T06:04:24;335.65;;;52.17;;
77522;SDS011;66637;-29.628;-49.938;2023-12-07T06:06:56;294.92;;;47.88;;
77522;SDS011;66637;-29.628;-49.938;2023-12-07T06:09:28;252.38;;;40.95;;
77522;SDS011;66637;-29.628;-49.938;2023-12-07T06:11:59;221.48;;;36.47;;
77522;SDS011;66637;-29.628;-49.938;2023-12-07T06:14:31;384.48;;;58.03;;
77522;SDS011;66637;-29.628;-49.938;2023-12-07T06:17:01;542.53;;;83.88;;
77522;SDS011;66637;-29.628;-49.938;2023-12-07T06:19:33;520.40;;;80.38;;
77522;SDS011;66637;-29.628;-49.938;2023-12-07T06:22:04;359.58;;;56.88;;
77522;SDS011;66637;-29.628;-49.938;2023-12-07T06:24:36;160.32;;;28.08;;
77522;SDS011;66637;-29.628;-49.938;2023-12-07T06:27:08;122.57;;;23.77;;
77522;SDS011;66637;-29.628;-49.938;2023-12-07T06:29:49;361.45;;;53.53;;
77522;SDS011;66637;-29.628;-49.938;2023-12-07T06:32:20;236.88;;;38.08;;
77522;SDS011;66637;-29.628;-49.938;2023-12-07T06:34:50;288.20;;;46.25;;
77522;SDS011;66637;-29.628;-49.938;2023-12-07T06:37:22;520.03;;;83.80;;
77522;SDS011;66637;-29.628;-49.938;2023-12-07T06:39:52;540.35;;;84.95;;
77522;SDS011;66637;-29.628;-49.938;2023-12-07T06:42:22;244.77;;;42.33;;
77522;SDS011;66637;-29.628;-49.938;2023-12-07T06:44:54;245.98;;;44.83;;
77522;SDS011;66637;-29.628;-49.938;2023-12-07T06:47:26;338.00;;;59.20;;
77522;SDS011;66637;-29.628;-49.938;2023-12-07T06:49:58;139.02;;;24.25;;
77522;SDS011;66637;-29.628;-49.938;2023-12-07T06:52:30;57.97;;;11.63;;
77522;SDS011;66637;-29.628;-49.938;2023-12-07T06:55:02;40.00;;;9.25;;
77522;SDS011;66637;-29.628;-49.938;2023-12-07T06:57:33;61.67;;;12.23;;
77522;SDS011;66637;-29.628;-49.938;2023-12-07T07:00:05;232.35;;;34.40;;
77522;SDS011;66637;-29.628;-49.938;2023-12-07T07:02:39;23.85;;;6.43;;
77522;SDS011;66637;-29.628;-49.938;2023-12-07T07:08:33;380.13;;;58.70;;
77522;SDS011;66637;-29.628;-49.938;2023-12-07T07:11:09;351.70;;;54.35;;
77522;SDS011;66637;-29.628;-49.938;2023-12-07T07:13:46;272.42;;;42.25;;
77522;SDS011;66637;-29.628;-49.938;2023-12-07T07:16:16;159.10;;;25.08;;
77522;SDS011;66637;-29.628;-49.938;2023-12-07T07:18:50;84.00;;;15.60;;
77522;SDS011;66637;-29.628;-49.938;2023-12-07T07:21:20;193.25;;;31.02;;
77522;SDS011;66637;-29.628;-49.938;2023-12-07T07:23:52;260.13;;;40.30;;
77522;SDS011;66637;-29.628;-49.938;2023-12-07T07:26:22;112.47;;;18.08;;
77522;SDS011;66637;-29.628;-49.938;2023-12-07T07:28:54;83.40;;;15.23;;
77522;SDS011;66637;-29.628;-49.938;2023-12-07T07:31:27;47.63;;;8.68;;
77522;SDS011;66637;-29.628;-49.938;2023-12-07T07:33:59;16.63;;;4.65;;
77522;SDS011;66637;-29.628;-49.938;2023-12-07T07:36:30;25.08;;;5.65;;
77522;SDS011;66637;-29.628;-49.938;2023-12-07T07:39:01;16.10;;;3.58;;
77522;SDS011;66637;-29.628;-49.938;2023-12-07T07:41:37;11.52;;;2.83;;
77522;SDS011;66637;-29.628;-49.938;2023-12-07T07:44:08;8.68;;;2.50;;
77522;SDS011;66637;-29.628;-49.938;2023-12-07T07:46:42;4.30;;;1.60;;
77522;SDS011;66637;-29.628;-49.938;2023-12-07T07:49:14;8.05;;;2.78;;
77522;SDS011;66637;-29.628;-49.938;2023-12-07T07:51:48;5.03;;;2.08;;
77522;SDS011;66637;-29.628;-49.938;2023-12-07T07:54:21;420.60;;;59.30;;
77522;SDS011;66637;-29.628;-49.938;2023-12-07T07:56:52;437.33;;;63.90;;
77522;SDS011;66637;-29.628;-49.938;2023-12-07T07:59:23;194.88;;;30.20;;
77522;SDS011;66637;-29.628;-49.938;2023-12-07T08:01:54;77.63;;;13.25;;
77522;SDS011;66637;-29.628;-49.938;2023-12-07T08:08:43;34.08;;;7.72;;
77522;SDS011;66637;-29.628;-49.938;2023-12-07T08:11:15;7.85;;;3.17;;
77522;SDS011;66637;-29.628;-49.938;2023-12-07T08:13:45;10.82;;;3.50;;
77522;SDS011;66637;-29.628;-49.938;2023-12-07T08:16:17;6.47;;;2.70;;
77522;SDS011;66637;-29.628;-49.938;2023-12-07T08:18:53;6.75;;;3.03;;
77522;SDS011;66637;-29.628;-49.938;2023-12-07T08:21:24;5.88;;;2.95;;
77522;SDS011;66637;-29.628;-49.938;2023-12-07T08:23:57;5.90;;;1.83;;
77522;SDS011;66637;-29.628;-49.938;2023-12-07T08:26:28;3.60;;;2.10;;
77522;SDS011;66637;-29.628;-49.938;2023-12-07T08:28:58;3.03;;;2.00;;
77522;SDS011;66637;-29.628;-49.938;2023-12-07T08:31:30;5.85;;;1.63;;
77522;SDS011;66637;-29.628;-49.938;2023-12-07T08:34:02;442.63;;;63.75;;
77522;SDS011;66637;-29.628;-49.938;2023-12-07T08:36:33;147.35;;;26.80;;
77522;SDS011;66637;-29.628;-49.938;2023-12-07T08:39:03;174.25;;;29.02;;
77522;SDS011;66637;-29.628;-49.938;2023-12-07T08:41:44;122.70;;;20.70;;
77522;SDS011;66637;-29.628;-49.938;2023-12-07T08:44:14;97.82;;;16.63;;
77522;SDS011;66637;-29.628;-49.938;2023-12-07T08:46:46;74.78;;;14.57;;
77522;SDS011;66637;-29.628;-49.938;2023-12-07T08:49:19;75.10;;;13.85;;
77522;SDS011;66637;-29.628;-49.938;2023-12-07T08:51:52;68.78;;;12.70;;
77522;SDS011;66637;-29.628;-49.938;2023-12-07T08:54:47;55.72;;;12.45;;
77522;SDS011;66637;-29.628;-49.938;2023-12-07T08:57:25;23.77;;;6.75;;
77522;SDS011;66637;-29.628;-49.938;2023-12-07T09:00:00;24.58;;;6.80;;
77522;SDS011;66637;-29.628;-49.938;2023-12-07T09:02:31;107.95;;;17.45;;
77522;SDS011;66637;-29.628;-49.938;2023-12-07T09:05:18;412.80;;;61.88;;
77522;SDS011;66637;-29.628;-49.938;2023-12-07T09:07:50;462.85;;;71.18;;
77522;SDS011;66637;-29.628;-49.938;2023-12-07T09:10:23;227.88;;;38.15;;
77522;SDS011;66637;-29.628;-49.938;2023-12-07T09:12:57;68.80;;;14.52;;
77522;SDS011;66637;-29.628;-49.938;2023-12-07T09:15:33;263.95;;;42.70;;
77522;SDS011;66637;-29.628;-49.938;2023-12-07T09:18:07;307.83;;;49.47;;
77522;SDS011;66637;-29.628;-49.938;2023-12-07T09:20:44;224.73;;;36.60;;
77522;SDS011;66637;-29.628;-49.938;2023-12-07T09:23:19;93.32;;;18.70;;
77522;SDS011;66637;-29.628;-49.938;2023-12-07T09:25:53;63.13;;;12.38;;
77522;SDS011;66637;-29.628;-49.938;2023-12-07T09:28:37;459.70;;;68.47;;
77522;SDS011;66637;-29.628;-49.938;2023-12-07T09:33:48;283.38;;;43.90;;
77522;SDS011;66637;-29.628;-49.938;2023-12-07T09:36:46;149.05;;;24.00;;
77522;SDS011;66637;-29.628;-49.938;2023-12-07T09:39:16;61.22;;;12.68;;
77522;SDS011;66637;-29.628;-49.938;2023-12-07T09:41:47;58.92;;;11.50;;
77522;SDS011;66637;-29.628;-49.938;2023-12-07T09:44:30;48.67;;;9.73;;
77522;SDS011;66637;-29.628;-49.938;2023-12-07T09:47:01;46.45;;;11.65;;
77522;SDS011;66637;-29.628;-49.938;2023-12-07T09:49:35;39.08;;;9.80;;
77522;SDS011;66637;-29.628;-49.938;2023-12-07T09:52:08;37.60;;;8.88;;
77522;SDS011;66637;-29.628;-49.938;2023-12-07T09:54:42;346.13;;;53.10;;
77522;SDS011;66637;-29.628;-49.938;2023-12-07T09:57:14;553.25;;;90.63;;
77522;SDS011;66637;-29.628;-49.938;2023-12-07T09:59:46;492.30;;;82.47;;
77522;SDS011;66637;-29.628;-49.938;2023-12-07T10:02:23;158.23;;;30.92;;
77522;SDS011;66637;-29.628;-49.938;2023-12-07T10:05:09;187.90;;;32.10;;
77522;SDS011;66637;-29.628;-49.938;2023-12-07T10:07:47;173.68;;;28.98;;
77522;SDS011;66637;-29.628;-49.938;2023-12-07T10:10:18;56.40;;;11.98;;
77522;SDS011;66637;-29.628;-49.938;2023-12-07T10:12:53;224.27;;;36.70;;
77522;SDS011;66637;-29.628;-49.938;2023-12-07T10:15:25;104.78;;;16.52;;
77522;SDS011;66637;-29.628;-49.938;2023-12-07T10:17:58;139.90;;;24.35;;
77522;SDS011;66637;-29.628;-49.938;2023-12-07T10:20:29;85.22;;;15.63;;
77522;SDS011;66637;-29.628;-49.938;2023-12-07T10:25:58;175.57;;;24.88;;
77522;SDS011;66637;-29.628;-49.938;2023-12-07T10:28:33;254.25;;;37.08;;
77522;SDS011;66637;-29.628;-49.938;2023-12-07T10:31:10;157.38;;;25.08;;
77522;SDS011;66637;-29.628;-49.938;2023-12-07T10:33:41;133.90;;;23.73;;
77522;SDS011;66637;-29.628;-49.938;2023-12-07T10:36:20;202.18;;;30.95;;
77522;SDS011;66637;-29.628;-49.938;2023-12-07T10:38:54;156.75;;;25.85;;
77522;SDS011;66637;-29.628;-49.938;2023-12-07T10:41:24;147.90;;;24.20;;
77522;SDS011;66637;-29.628;-49.938;2023-12-07T10:44:02;160.93;;;26.88;;
77522;SDS011;66637;-29.628;-49.938;2023-12-07T10:46:36;212.80;;;32.13;;
77522;SDS011;66637;-29.628;-49.938;2023-12-07T10:49:14;272.45;;;37.50;;
77522;SDS011;66637;-29.628;-49.938;2023-12-07T10:52:03;75.80;;;13.68;;
77522;SDS011;66637;-29.628;-49.938;2023-12-07T10:54:50;211.15;;;31.38;;
77522;SDS011;66637;-29.628;-49.938;2023-12-07T10:57:27;263.40;;;38.30;;
77522;SDS011;66637;-29.628;-49.938;2023-12-07T10:59:59;259.42;;;41.00;;
77522;SDS011;66637;-29.628;-49.938;2023-12-07T11:02:32;184.20;;;28.02;;
77522;SDS011;66637;-29.628;-49.938;2023-12-07T11:05:07;189.38;;;27.75;;
77522;SDS011;66637;-29.628;-49.938;2023-12-07T11:07:46;98.50;;;16.02;;
77522;SDS011;66637;-29.628;-49.938;2023-12-07T11:11:01;107.97;;;15.77;;
77522;SDS011;66637;-29.628;-49.938;2023-12-07T11:13:35;86.22;;;13.95;;
77522;SDS011;66637;-29.628;-49.938;2023-12-07T11:16:07;106.05;;;17.10;;
77522;SDS011;66637;-29.628;-49.938;2023-12-07T11:18:39;75.18;;;13.52;;
77522;SDS011;66637;-29.628;-49.938;2023-12-07T11:21:11;75.15;;;15.38;;
77522;SDS011;66637;-29.628;-49.938;2023-12-07T11:23:42;68.80;;;10.18;;
77522;SDS011;66637;-29.628;-49.938;2023-12-07T11:26:14;62.75;;;12.25;;
77522;SDS011;66637;-29.628;-49.938;2023-12-07T11:28:45;64.15;;;10.88;;
77522;SDS011;66637;-29.628;-49.938;2023-12-07T11:31:19;58.92;;;10.05;;
77522;SDS011;66637;-29.628;-49.938;2023-12-07T11:33:51;60.80;;;8.68;;
77522;SDS011;66637;-29.628;-49.938;2023-12-07T11:36:24;41.53;;;7.70;;
77522;SDS011;66637;-29.628;-49.938;2023-12-07T11:41:53;39.97;;;6.63;;
77522;SDS011;66637;-29.628;-49.938;2023-12-07T11:44:34;42.33;;;7.32;;
77522;SDS011;66637;-29.628;-49.938;2023-12-07T11:47:07;59.33;;;9.23;;
77522;SDS011;66637;-29.628;-49.938;2023-12-07T11:50:02;28.08;;;6.07;;
77522;SDS011;66637;-29.628;-49.938;2023-12-07T11:52:36;58.78;;;9.30;;
77522;SDS011;66637;-29.628;-49.938;2023-12-07T11:55:07;41.40;;;7.32;;
77522;SDS011;66637;-29.628;-49.938;2023-12-07T11:57:38;25.88;;;5.57;;
77522;SDS011;66637;-29.628;-49.938;2023-12-07T12:00:11;38.92;;;8.02;;
77522;SDS011;66637;-29.628;-49.938;2023-12-07T12:02:47;12.68;;;3.60;;
77522;SDS011;66637;-29.628;-49.938;2023-12-07T12:05:17;40.72;;;7.60;;
77522;SDS011;66637;-29.628;-49.938;2023-12-07T12:07:48;29.58;;;5.70;;
77522;SDS011;66637;-29.628;-49.938;2023-12-07T12:10:20;15.45;;;3.95;;
77522;SDS011;66637;-29.628;-49.938;2023-12-07T12:13:02;72.32;;;10.85;;
77522;SDS011;66637;-29.628;-49.938;2023-12-07T12:15:53;20.42;;;4.63;;
77522;SDS011;66637;-29.628;-49.938;2023-12-07T12:18:31;32.55;;;6.50;;
77522;SDS011;66637;-29.628;-49.938;2023-12-07T12:21:04;84.72;;;14.63;;
77522;SDS011;66637;-29.628;-49.938;2023-12-07T12:23:38;63.17;;;10.80;;
77522;SDS011;66637;-29.628;-49.938;2023-12-07T12:26:10;48.30;;;8.63;;
77522;SDS011;66637;-29.628;-49.938;2023-12-07T12:28:40;50.95;;;8.85;;
77522;SDS011;66637;-29.628;-49.938;2023-12-07T12:31:13;27.40;;;5.93;;
77522;SDS011;66637;-29.628;-49.938;2023-12-07T12:33:47;69.57;;;12.48;;
77522;SDS011;66637;-29.628;-49.938;2023-12-07T12:36:26;23.42;;;5.15;;
77522;SDS011;66637;-29.628;-49.938;2023-12-07T12:39:02;41.80;;;7.40;;
77522;SDS011;66637;-29.628;-49.938;2023-12-07T12:41:54;25.65;;;6.40;;
77522;SDS011;66637;-29.628;-49.938;2023-12-07T12:44:30;48.78;;;9.35;;
77522;SDS011;66637;-29.628;-49.938;2023-12-07T12:47:05;54.47;;;10.00;;
77522;SDS011;66637;-29.628;-49.938;2023-12-07T12:49:42;44.75;;;9.02;;
77522;SDS011;66637;-29.628;-49.938;2023-12-07T12:52:33;56.35;;;9.45;;
77522;SDS011;66637;-29.628;-49.938;2023-12-07T12:55:12;66.97;;;10.98;;
77522;SDS011;66637;-29.628;-49.938;2023-12-07T12:57:43;36.45;;;7.35;;
77522;SDS011;66637;-29.628;-49.938;2023-12-07T13:00:15;51.42;;;9.00;;
77522;SDS011;66637;-29.628;-49.938;2023-12-07T13:02:47;62.50;;;13.07;;
77522;SDS011;66637;-29.628;-49.938;2023-12-07T13:05:20;47.17;;;9.00;;
77522;SDS011;66637;-29.628;-49.938;2023-12-07T13:07:51;94.35;;;15.30;;
77522;SDS011;66637;-29.628;-49.938;2023-12-07T13:10:41;27.13;;;5.95;;
77522;SDS011;66637;-29.628;-49.938;2023-12-07T13:13:12;39.60;;;7.70;;
77522;SDS011;66637;-29.628;-49.938;2023-12-07T13:15:44;48.70;;;9.38;;
77522;SDS011;66637;-29.628;-49.938;2023-12-07T13:18:15;51.45;;;9.05;;
77522;SDS011;66637;-29.628;-49.938;2023-12-07T13:20:48;58.45;;;9.98;;
77522;SDS011;66637;-29.628;-49.938;2023-12-07T13:23:23;74.63;;;12.63;;
77522;SDS011;66637;-29.628;-49.938;2023-12-07T13:25:56;53.90;;;9.07;;
77522;SDS011;66637;-29.628;-49.938;2023-12-07T13:28:27;42.95;;;7.07;;
77522;SDS011;66637;-29.628;-49.938;2023-12-07T13:30:58;41.28;;;7.38;;
77522;SDS011;66637;-29.628;-49.938;2023-12-07T13:33:29;43.00;;;6.78;;
77522;SDS011;66637;-29.628;-49.938;2023-12-07T13:36:17;15.52;;;3.03;;
77522;SDS011;66637;-29.628;-49.938;2023-12-07T13:38:48;44.47;;;6.75;;
77522;SDS011;66637;-29.628;-49.938;2023-12-07T13:41:19;32.05;;;5.35;;
77522;SDS011;66637;-29.628;-49.938;2023-12-07T13:43:50;66.78;;;9.48;;
77522;SDS011;66637;-29.628;-49.938;2023-12-07T13:46:22;15.35;;;3.58;;
77522;SDS011;66637;-29.628;-49.938;2023-12-07T13:48:53;25.30;;;3.47;;
77522;SDS011;66637;-29.628;-49.938;2023-12-07T13:51:24;29.25;;;5.00;;
77522;SDS011;66637;-29.628;-49.938;2023-12-07T13:53:56;40.35;;;5.68;;
77522;SDS011;66637;-29.628;-49.938;2023-12-07T13:56:28;34.83;;;4.90;;
77522;SDS011;66637;-29.628;-49.938;2023-12-07T13:58:59;30.85;;;5.03;;
77522;SDS011;66637;-29.628;-49.938;2023-12-07T14:01:34;43.35;;;6.50;;
77522;SDS011;66637;-29.628;-49.938;2023-12-07T14:04:06;34.33;;;4.85;;
77522;SDS011;66637;-29.628;-49.938;2023-12-07T14:06:44;32.00;;;5.13;;
77522;SDS011;66637;-29.628;-49.938;2023-12-07T14:09:18;40.42;;;6.57;;
77522;SDS011;66637;-29.628;-49.938;2023-12-07T14:11:49;39.60;;;5.88;;
77522;SDS011;66637;-29.628;-49.938;2023-12-07T14:14:20;28.35;;;4.93;;
77522;SDS011;66637;-29.628;-49.938;2023-12-07T14:16:52;45.25;;;8.18;;
77522;SDS011;66637;-29.628;-49.938;2023-12-07T14:19:40;44.67;;;6.07;;
77522;SDS011;66637;-29.628;-49.938;2023-12-07T14:22:15;36.90;;;6.38;;
77522;SDS011;66637;-29.628;-49.938;2023-12-07T14:24:47;51.70;;;8.25;;
77522;SDS011;66637;-29.628;-49.938;2023-12-07T14:27:19;40.33;;;6.82;;
77522;SDS011;66637;-29.628;-49.938;2023-12-07T14:29:51;25.50;;;4.57;;
77522;SDS011;66637;-29.628;-49.938;2023-12-07T14:32:23;33.38;;;6.65;;
77522;SDS011;66637;-29.628;-49.938;2023-12-07T14:34:55;68.30;;;10.13;;
77522;SDS011;66637;-29.628;-49.938;2023-12-07T14:37:27;25.23;;;5.28;;
77522;SDS011;66637;-29.628;-49.938;2023-12-07T14:40:00;48.33;;;7.78;;
77522;SDS011;66637;-29.628;-49.938;2023-12-07T14:42:34;62.50;;;11.10;;
77522;SDS011;66637;-29.628;-49.938;2023-12-07T14:45:05;49.75;;;7.50;;
77522;SDS011;66637;-29.628;-49.938;2023-12-07T14:47:40;59.03;;;8.73;;
77522;SDS011;66637;-29.628;-49.938;2023-12-07T14:50:14;56.05;;;9.48;;
77522;SDS011;66637;-29.628;-49.938;2023-12-07T14:52:46;58.17;;;7.78;;
77522;SDS011;66637;-29.628;-49.938;2023-12-07T14:55:17;46.90;;;8.25;;
77522;SDS011;66637;-29.628;-49.938;2023-12-07T14:57:47;43.35;;;7.22;;
77522;SDS011;66637;-29.628;-49.938;2023-12-07T15:00:20;23.15;;;5.20;;
77522;SDS011;66637;-29.628;-49.938;2023-12-07T15:02:53;16.55;;;3.60;;